Aérodrome :
LOGIN :

S'inscrire | Disclaimer

   EN    FR    IT 

 










Légende :    VFR   VFR Marginal   IFR   IFR Intensif   IFR Très Intensif
Visi : 
Plafond : 
>= 8 km
>= 3000ft
5 à 8 km
1000 à 3000 ft
1500m à 5 km
500 à 1000 ft
800 à 1500m
200 à 500 ft
< 800m
< 200 ft
Symboles :   Orages  Brouillard  Fortes neiges  Fortes précipitations  Vent > 20 kt
SIGMETs :   Divers  Orages  Givrage  Turbulence  Onde Orograph.  Cendres Volcan.






- Altitude de l'aérodrome : 424 ft
- Code IATA : QGY


LHPR - Györ Per

DERNIER METAR :
  • 232015Z AUTO 24012KT 200V270 CAVOK 12/03 Q1010

METARs EXPIRÉS :
  • 231945Z AUTO 27008KT 230V310 CAVOK 11/03 Q1011
  • 231915Z AUTO 22016KT 190V260 CAVOK 11/03 Q1010
  • 231845Z AUTO 22017KT 190V250 CAVOK 11/02 Q1011
  • 231815Z AUTO 22016KT CAVOK 11/02 Q1011
  • 231745Z AUTO 23012KT 190V260 CAVOK 12/02 Q1012

TAF TAF LHPR
Valide du 23 à 18h jusqu'au 24 à 03h UTC


231715Z 2318/2403 22010KT CAVOK
BECMG 2318/2321 28020G34KT
BECMG 2323/2402 33025G45KT SQ
TEMPO 2323/2403 6000 SHRA SCT030TCU BKN060



MET'MAP, la Météo Aéronautique d'un coup d'oeil ! - Copyright ORBIFLY Décembre 2007 - Disclaimer

ORBIFLY MET'MAP TEAM :

Programmation & Développement : Alexandra Zaïnal
Sur une idée originale de : Baudouin d'Aumeries
Assistance à la programmation : Marc-Olivier Méhu
Soutien technique & logistique : Manuel Goepfert

Contact : metmap@orbifly.com




SOURCES & CREDITS :

   NOAA